Terminal Aerodrome Forecast
Issued by NWS

Home | Current Version | Previous Version | Text Only | Print | Product List | Glossary On
Versions: 1 2 3 4 5 6 7 8 9 10 11 12 13 14 15 16 17 18 19 20 21 22 23 24 25 26 27 28
000
FTUS43 KDVN 220400 AAB
TAFCID
TAF AMD
KCID 220445Z 2205/2224 16012KT P6SM BKN012 OVC035
      TEMPO 2205/2209 5SM -RA BR SCT012 OVC035
     FM220900 15010KT P6SM SCT020 OVC035
     FM221200 14012KT 2SM -RADZ BR BKN007 OVC015=

USA.gov is the U.S. government's official web portal to all federal, state and local government web resources and services.